Terminal Aerodrome Forecast
Issued by NWS Wilmington, OH

Current Version | Previous Version | Text Only | Print | Product List | Glossary Off
Versions: 1 2 3 4 5 6 7 8 9 10 11 12 13 14 15 16 17 18 19 20 21 22

822
FTUS41 KILN 232336
TAFCMH
TAF
KCMH 232336Z 2400/2424 11010KT P6SM -SHRA SCT035 OVC060
     FM240600 10012KT P6SM OVC050
     FM241400 11011KT P6SM -SHRA BKN025 OVC040
     FM241800 10010KT 5SM -SHRA BR BKN009 OVC025
     FM242200 09007KT 5SM BR OVC008=

USA.gov is the U.S. government's official web portal to all federal, state and local government web resources and services.